Temp: 16.6°C   Baro: 1016.1mb
  Wind: 0.0mph   Dir: W (281°)
  Rain: 0.6mm (0.0mm/hr)
  Solar: 237W/m2  Hum: 72%
 
Bath Spa Weather Station Historical Data
Daily Summary for August 04, 2020 Units:  Both    English   Metric
Daily Weekly Monthly Yearly Custom
  High: Low: Average:
Temperature: 68.5 °F /  20.3 °C 46.9 °F /  8.3 °C 58.4 °F /  14.7 °C
Dew Point: 57.6 °F /  14.2 °C 43.2 °F /  6.2 °C 51 °F /  10.6 °C
Humidity: 88% 65.4% 77%
Wind Speed: 10.4mph /  16.7km/h - 3.5mph /  5.6km/h
Wind Gust: 18mph /  29km/h - -
Wind- - SW
Pressure: 30.07 in /  1018.2 hPa 29.90 in /  1012.4 hPa -
Precipitation: 0.00 in /  0 mm    
Historical Graphs
 
 
Tabular Data for August 04, 2020
Time Temperature Dew Point Pressure Wind Wind Speed Wind Gust Humidity Rainfall Rate (Hourly) solar
00:04 53.4 °F /  11.9 °C 45.8 °F /  7.7 °C 30.07in /  1018.2hPa Calm     75.2% 0.00in /  0mm 0 W/m2
00:09 53.4 °F /  11.9 °C 46 °F /  7.8 °C 30.07in /  1018.2hPa Calm     76% 0.00in /  0mm 0 W/m2
00:14 53.2 °F /  11.8 °C 45.9 °F /  7.7 °C 30.07in /  1018.2hPa Calm     76% 0.00in /  0mm 0 W/m2
00:19 53.2 °F /  11.8 °C 45.8 °F /  7.7 °C 30.07in /  1018.2hPa Calm     76% 0.00in /  0mm 0 W/m2
00:24 53 °F /  11.7 °C 45.6 °F /  7.6 °C 30.07in /  1018.2hPa Calm     76% 0.00in /  0mm 0 W/m2
00:29 52.9 °F /  11.6 °C 45.5 °F /  7.5 °C 30.07in /  1018.2hPa Calm     76% 0.00in /  0mm 0 W/m2
00:34 52.6 °F /  11.4 °C 45.2 °F /  7.3 °C 30.07in /  1018.2hPa Calm     76% 0.00in /  0mm 0 W/m2
00:39 52.5 °F /  11.4 °C 45.1 °F /  7.3 °C 30.07in /  1018.2hPa Calm     76% 0.00in /  0mm 0 W/m2
00:44 52.3 °F /  11.3 °C 44.9 °F /  7.2 °C 30.07in /  1018.2hPa Calm     76% 0.00in /  0mm 0 W/m2
00:49 52 °F /  11.1 °C 44.6 °F /  7 °C 30.07in /  1018.2hPa Calm     76% 0.00in /  0mm 0 W/m2
00:54 51.5 °F /  10.8 °C 44.1 °F /  6.7 °C 30.07in /  1018.2hPa Calm     76% 0.00in /  0mm 0 W/m2
00:59 51.2 °F /  10.7 °C 44.1 °F /  6.7 °C 30.07in /  1018.2hPa Calm     77% 0.00in /  0mm 0 W/m2
01:04 50.9 °F /  10.5 °C 44.1 °F /  6.7 °C 30.07in /  1018.2hPa Calm     77.6% 0.00in /  0mm 0 W/m2
01:09 50.9 °F /  10.5 °C 44.2 °F /  6.8 °C 30.07in /  1018.2hPa Calm     78% 0.00in /  0mm 0 W/m2
01:14 50.8 °F /  10.4 °C 44.4 °F /  6.9 °C 30.07in /  1018.2hPa Calm     78.8% 0.00in /  0mm 0 W/m2
01:19 50.8 °F /  10.4 °C 44.5 °F /  6.9 °C 30.07in /  1018.2hPa Calm     79% 0.00in /  0mm 0 W/m2
01:24 50.8 °F /  10.4 °C 44.5 °F /  6.9 °C 30.07in /  1018.2hPa Calm     79% 0.00in /  0mm 0 W/m2
01:29 50.7 °F /  10.4 °C 44.4 °F /  6.9 °C 30.06in /  1017.8hPa Calm     79% 0.00in /  0mm 0 W/m2
01:34 50.7 °F /  10.4 °C 44.4 °F /  6.9 °C 30.06in /  1017.8hPa Calm     79% 0.00in /  0mm 0 W/m2
01:39 50.5 °F /  10.3 °C 44.5 °F /  6.9 °C 30.06in /  1017.8hPa Calm     79.8% 0.00in /  0mm 0 W/m2
01:44 50.4 °F /  10.2 °C 44.4 °F /  6.9 °C 30.06in /  1017.8hPa Calm     80% 0.00in /  0mm 0 W/m2
01:49 50.2 °F /  10.1 °C 44.2 °F /  6.8 °C 30.06in /  1017.8hPa Calm     80% 0.00in /  0mm 0 W/m2
01:54 50.2 °F /  10.1 °C 44.2 °F /  6.8 °C 30.06in /  1017.8hPa Calm     80% 0.00in /  0mm 0 W/m2
01:59 49.8 °F /  9.9 °C 44.1 °F /  6.7 °C 30.06in /  1017.8hPa Calm     80.4% 0.00in /  0mm 0 W/m2
02:04 49.8 °F /  9.9 °C 44.2 °F /  6.8 °C 30.06in /  1017.8hPa Calm     81% 0.00in /  0mm 0 W/m2
02:09 49.6 °F /  9.8 °C 44.1 °F /  6.7 °C 30.06in /  1017.8hPa Calm     81% 0.00in /  0mm 0 W/m2
02:14 49.5 °F /  9.7 °C 44 °F /  6.7 °C 30.06in /  1017.8hPa Calm     81.4% 0.00in /  0mm 0 W/m2
02:19 49.3 °F /  9.6 °C 44.1 °F /  6.7 °C 30.06in /  1017.8hPa Calm     82% 0.00in /  0mm 0 W/m2
02:24 49.3 °F /  9.6 °C 44.1 °F /  6.7 °C 30.06in /  1017.8hPa Calm     82% 0.00in /  0mm 0 W/m2
02:29 49.3 °F /  9.6 °C 44.1 °F /  6.7 °C 30.06in /  1017.8hPa Calm     82% 0.00in /  0mm 0 W/m2
02:34 49 °F /  9.4 °C 44 °F /  6.7 °C 30.06in /  1017.8hPa Calm     82.4% 0.00in /  0mm 0 W/m2
02:39 48.8 °F /  9.3 °C 44 °F /  6.7 °C 30.06in /  1017.8hPa Calm     83% 0.00in /  0mm 0 W/m2
02:44 48.7 °F /  9.3 °C 43.8 °F /  6.6 °C 30.06in /  1017.8hPa Calm     83% 0.00in /  0mm 0 W/m2
02:49 48.5 °F /  9.2 °C 43.6 °F /  6.4 °C 30.05in /  1017.5hPa Calm     83% 0.00in /  0mm 0 W/m2
02:54 48.3 °F /  9.1 °C 43.5 °F /  6.4 °C 30.05in /  1017.5hPa Calm     83.4% 0.00in /  0mm 0 W/m2
02:59 48.2 °F /  9 °C 43.5 °F /  6.4 °C 30.05in /  1017.5hPa Calm     84% 0.00in /  0mm 0 W/m2
03:04 48.1 °F /  8.9 °C 43.4 °F /  6.3 °C 30.05in /  1017.5hPa Calm     84% 0.00in /  0mm 0 W/m2
03:09 48 °F /  8.9 °C 43.3 °F /  6.3 °C 30.05in /  1017.5hPa Calm     84% 0.00in /  0mm 0 W/m2
03:14 48 °F /  8.9 °C 43.3 °F /  6.3 °C 30.05in /  1017.5hPa Calm     84% 0.00in /  0mm 0 W/m2
03:19 48 °F /  8.9 °C 43.3 °F /  6.3 °C 30.05in /  1017.5hPa Calm     84% 0.00in /  0mm 0 W/m2
03:24 48 °F /  8.9 °C 43.3 °F /  6.3 °C 30.05in /  1017.5hPa Calm     84% 0.00in /  0mm 0 W/m2
03:34 48 °F /  8.9 °C 43.7 °F /  6.5 °C 30.05in /  1017.5hPa Calm     85% 0.00in /  0mm 0 W/m2
03:39 48.1 °F /  8.9 °C 43.8 °F /  6.6 °C 30.05in /  1017.5hPa Calm     85% 0.00in /  0mm 0 W/m2
03:44 48.2 °F /  9 °C 43.9 °F /  6.6 °C 30.05in /  1017.5hPa Calm     85% 0.00in /  0mm 0 W/m2
03:49 48.1 °F /  8.9 °C 43.8 °F /  6.6 °C 30.05in /  1017.5hPa Calm     85% 0.00in /  0mm 0 W/m2
03:54 48.2 °F /  9 °C 43.9 °F /  6.6 °C 30.05in /  1017.5hPa Calm     85% 0.00in /  0mm 0 W/m2
03:59 48.4 °F /  9.1 °C 44.1 °F /  6.7 °C 30.05in /  1017.5hPa Calm     85% 0.00in /  0mm 0 W/m2
04:04 48.4 °F /  9.1 °C 44.1 °F /  6.7 °C 30.05in /  1017.5hPa Calm     85% 0.00in /  0mm 0 W/m2
04:09 48.6 °F /  9.2 °C 44.2 °F /  6.8 °C 30.05in /  1017.5hPa Calm     85% 0.00in /  0mm 0 W/m2
04:14 48.6 °F /  9.2 °C 44.2 °F /  6.8 °C 30.05in /  1017.5hPa Calm     85% 0.00in /  0mm 0 W/m2
04:19 48.4 °F /  9.1 °C 44.1 °F /  6.7 °C 30.05in /  1017.5hPa Calm     85% 0.00in /  0mm 0 W/m2
04:24 48.5 °F /  9.2 °C 44.2 °F /  6.8 °C 30.05in /  1017.5hPa Calm     85% 0.00in /  0mm 0 W/m2
04:29 48.4 °F /  9.1 °C 44.1 °F /  6.7 °C 30.04in /  1017.2hPa Calm     85% 0.00in /  0mm 0 W/m2
04:34 48.6 °F /  9.2 °C 44.2 °F /  6.8 °C 30.04in /  1017.2hPa Calm     85% 0.00in /  0mm 0 W/m2
04:39 48.6 °F /  9.2 °C 44.2 °F /  6.8 °C 30.04in /  1017.2hPa Calm     85% 0.00in /  0mm 0 W/m2
04:44 48.6 °F /  9.2 °C 44.2 °F /  6.8 °C 30.04in /  1017.2hPa Calm     85% 0.00in /  0mm 0 W/m2
04:49 48.6 °F /  9.2 °C 44.2 °F /  6.8 °C 30.04in /  1017.2hPa Calm     85% 0.00in /  0mm 0 W/m2
04:54 48.4 °F /  9.1 °C 44.1 °F /  6.7 °C 30.04in /  1017.2hPa Calm     85% 0.00in /  0mm 0 W/m2
04:59 48.2 °F /  9 °C 43.9 °F /  6.6 °C 30.04in /  1017.2hPa Calm     85% 0.00in /  0mm 0 W/m2
05:04 48 °F /  8.9 °C 43.7 °F /  6.5 °C 30.04in /  1017.2hPa Calm     85% 0.00in /  0mm 0 W/m2
05:09 47.9 °F /  8.8 °C 43.6 °F /  6.4 °C 30.04in /  1017.2hPa Calm     85% 0.00in /  0mm 0 W/m2
05:14 48 °F /  8.9 °C 43.7 °F /  6.5 °C 30.04in /  1017.2hPa Calm     85% 0.00in /  0mm 0 W/m2
05:19 47.9 °F /  8.8 °C 43.9 °F /  6.6 °C 30.04in /  1017.2hPa Calm     85.6% 0.00in /  0mm 0 W/m2
05:24 47.8 °F /  8.8 °C 43.9 °F /  6.6 °C 30.04in /  1017.2hPa Calm     86% 0.00in /  0mm 0 W/m2
05:29 47.7 °F /  8.7 °C 43.7 °F /  6.5 °C 30.04in /  1017.2hPa Calm     86% 0.00in /  0mm 0 W/m2
05:34 47.7 °F /  8.7 °C 43.7 °F /  6.5 °C 30.04in /  1017.2hPa Calm     86% 0.00in /  0mm 0 W/m2
05:39 47.7 °F /  8.7 °C 43.7 °F /  6.5 °C 30.04in /  1017.2hPa Calm     86% 0.00in /  0mm 0 W/m2
05:44 47.6 °F /  8.7 °C 43.6 °F /  6.4 °C 30.04in /  1017.2hPa Calm     86% 0.00in /  0mm 5 W/m2
05:49 47.5 °F /  8.6 °C 43.5 °F /  6.4 °C 30.04in /  1017.2hPa Calm     86% 0.00in /  0mm 5 W/m2
05:54 47.4 °F /  8.6 °C 43.4 °F /  6.3 °C 30.03in /  1016.8hPa Calm     86% 0.00in /  0mm 7 W/m2
05:59 47.3 °F /  8.5 °C 43.4 °F /  6.3 °C 30.04in /  1017.2hPa Calm     86.2% 0.00in /  0mm 7 W/m2
06:04 47.2 °F /  8.4 °C 43.6 °F /  6.4 °C 30.03in /  1016.8hPa Calm     87% 0.00in /  0mm 9 W/m2
06:09 47.1 °F /  8.4 °C 43.2 °F /  6.2 °C 30.03in /  1016.8hPa Calm     86.2% 0.00in /  0mm 11 W/m2
06:14 47.1 °F /  8.4 °C 43.5 °F /  6.4 °C 30.04in /  1017.2hPa Calm     87% 0.00in /  0mm 12 W/m2
06:19 47.1 °F /  8.4 °C 43.5 °F /  6.4 °C 30.04in /  1017.2hPa Calm     87% 0.00in /  0mm 14 W/m2
06:24 47 °F /  8.3 °C 43.4 °F /  6.3 °C 30.04in /  1017.2hPa Calm     87% 0.00in /  0mm 16 W/m2
06:29 46.9 °F /  8.3 °C 43.3 °F /  6.3 °C 30.04in /  1017.2hPa Calm     87% 0.00in /  0mm 18 W/m2
06:34 46.9 °F /  8.3 °C 43.3 °F /  6.3 °C 30.04in /  1017.2hPa Calm     87% 0.00in /  0mm 21 W/m2
06:39 47 °F /  8.3 °C 43.4 °F /  6.3 °C 30.04in /  1017.2hPa Calm     87% 0.00in /  0mm 23 W/m2
06:44 47.3 °F /  8.5 °C 43.7 °F /  6.5 °C 30.04in /  1017.2hPa Calm     87.3% 0.00in /  0mm 25 W/m2
06:49 47.5 °F /  8.6 °C 44.1 °F /  6.7 °C 30.04in /  1017.2hPa Calm     88% 0.00in /  0mm 28 W/m2
06:54 47.7 °F /  8.7 °C 44.3 °F /  6.8 °C 30.04in /  1017.2hPa Calm     88% 0.00in /  0mm 33 W/m2
06:59 48 °F /  8.9 °C 44.6 °F /  7 °C 30.04in /  1017.2hPa Calm     88% 0.00in /  0mm 40 W/m2
07:04 48.4 °F /  9.1 °C 45 °F /  7.2 °C 30.04in /  1017.2hPa Calm     88% 0.00in /  0mm 58 W/m2
07:09 48.7 °F /  9.3 °C 45.2 °F /  7.3 °C 30.04in /  1017.2hPa Calm     88% 0.00in /  0mm 79 W/m2
07:14 49.1 °F /  9.5 °C 45.7 °F /  7.6 °C 30.04in /  1017.2hPa Calm     88% 0.00in /  0mm 81 W/m2
07:19 49.5 °F /  9.7 °C 46.1 °F /  7.8 °C 30.03in /  1016.8hPa Calm     88% 0.00in /  0mm 105 W/m2
07:24 50 °F /  10 °C 46.6 °F /  8.1 °C 30.03in /  1016.8hPa Calm     88% 0.00in /  0mm 134 W/m2
07:29 50.4 °F /  10.2 °C 47 °F /  8.3 °C 30.03in /  1016.8hPa Calm     88% 0.00in /  0mm 141 W/m2
07:34 50.8 °F /  10.4 °C 47.1 °F /  8.4 °C 30.03in /  1016.8hPa Calm     87.4% 0.00in /  0mm 174 W/m2
07:39 51.3 °F /  10.7 °C 47.5 °F /  8.6 °C 30.03in /  1016.8hPa Calm     87% 0.00in /  0mm 181 W/m2
07:44 51.8 °F /  11 °C 48 °F /  8.9 °C 30.03in /  1016.8hPa Calm     87% 0.00in /  0mm 227 W/m2
07:49 52.3 °F /  11.3 °C 48.2 °F /  9 °C 30.03in /  1016.8hPa Calm     86.2% 0.00in /  0mm 144 W/m2
07:54 52.9 °F /  11.6 °C 48.8 °F /  9.3 °C 30.03in /  1016.8hPa Calm     86% 0.00in /  0mm 118 W/m2
07:59 53.2 °F /  11.8 °C 48.9 °F /  9.4 °C 30.03in /  1016.8hPa Calm     85.3% 0.00in /  0mm 116 W/m2
08:04 53.6 °F /  12 °C 48.9 °F /  9.4 °C 30.03in /  1016.8hPa Calm     84.2% 0.00in /  0mm 100 W/m2
08:09 53.9 °F /  12.2 °C 48.7 °F /  9.3 °C 30.03in /  1016.8hPa Calm     82.8% 0.00in /  0mm 234 W/m2
08:14 54.4 °F /  12.4 °C 48.8 °F /  9.3 °C 30.03in /  1016.8hPa Calm     81.6% 0.00in /  0mm 330 W/m2
08:19 55.6 °F /  13.1 °C 49.4 °F /  9.7 °C 30.03in /  1016.8hPa Calm     79.8% 0.00in /  0mm 283 W/m2
08:24 56.4 °F /  13.6 °C 49.4 °F /  9.7 °C 30.04in /  1017.2hPa Calm     77.6% 0.00in /  0mm 220 W/m2
08:29 56.7 °F /  13.7 °C 49 °F /  9.4 °C 30.04in /  1017.2hPa Calm     75.8% 0.00in /  0mm 213 W/m2
08:34 56.7 °F /  13.7 °C 48.7 °F /  9.3 °C 30.04in /  1017.2hPa Calm     74.8% 0.00in /  0mm 192 W/m2
08:39 56.7 °F /  13.7 °C 48.5 °F /  9.2 °C 30.04in /  1017.2hPa Calm     74% 0.00in /  0mm 193 W/m2
08:44 56.8 °F /  13.8 °C 48.5 °F /  9.2 °C 30.04in /  1017.2hPa Calm     73.6% 0.00in /  0mm 195 W/m2
08:49 57.1 °F /  13.9 °C 48.5 °F /  9.2 °C 30.04in /  1017.2hPa Calm     73% 0.00in /  0mm 172 W/m2
08:54 57.4 °F /  14.1 °C 48.6 °F /  9.2 °C 30.03in /  1016.8hPa Calm     72.6% 0.00in /  0mm 186 W/m2
08:59 57.6 °F /  14.2 °C 48.5 °F /  9.2 °C 30.03in /  1016.8hPa Calm     71.8% 0.00in /  0mm 246 W/m2
09:04 57.7 °F /  14.3 °C 48.4 °F /  9.1 °C 30.03in /  1016.8hPa Calm     71% 0.00in /  0mm 253 W/m2
09:09 58.1 °F /  14.5 °C 48.8 °F /  9.3 °C 30.03in /  1016.8hPa WNW 0.6mph /  1km/h 3mph /  4.8km/h 71% 0.00in /  0mm 285 W/m2
09:14 58.6 °F /  14.8 °C 49.3 °F /  9.6 °C 30.03in /  1016.8hPa WNW 1.2mph /  1.9km/h 4mph /  6.4km/h 71% 0.00in /  0mm 401 W/m2
09:19 59.2 °F /  15.1 °C 49.8 °F /  9.9 °C 30.03in /  1016.8hPa WNW 0.6mph /  1km/h 3mph /  4.8km/h 70.8% 0.00in /  0mm 274 W/m2
09:24 59.5 °F /  15.3 °C 50.2 °F /  10.1 °C 30.03in /  1016.8hPa WNW 1.2mph /  1.9km/h 3mph /  4.8km/h 71% 0.00in /  0mm 160 W/m2
09:29 59.7 °F /  15.4 °C 50.3 °F /  10.2 °C 30.04in /  1017.2hPa WSW 1.5mph /  2.4km/h 5mph /  8km/h 71% 0.00in /  0mm 185 W/m2
09:34 59.7 °F /  15.4 °C 50.4 °F /  10.2 °C 30.04in /  1017.2hPa WSW 2.8mph /  4.5km/h 7mph /  11.3km/h 71% 0.00in /  0mm 223 W/m2
09:39 60 °F /  15.6 °C 50.6 °F /  10.3 °C 30.04in /  1017.2hPa SW 2.5mph /  4km/h 5mph /  8km/h 71% 0.00in /  0mm 221 W/m2
09:44 60.1 °F /  15.6 °C 50.6 °F /  10.3 °C 30.03in /  1016.8hPa SW 4mph /  6.4km/h 7mph /  11.3km/h 70.8% 0.00in /  0mm 211 W/m2
09:49 60.1 °F /  15.6 °C 50 °F /  10 °C 30.03in /  1016.8hPa SW 3mph /  4.8km/h 7mph /  11.3km/h 69.6% 0.00in /  0mm 281 W/m2
09:54 60.4 °F /  15.8 °C 50 °F /  10 °C 30.03in /  1016.8hPa WSW 2.9mph /  4.7km/h 8mph /  12.9km/h 68.6% 0.00in /  0mm 302 W/m2
09:59 60.6 °F /  15.9 °C 49.9 °F /  9.9 °C 30.03in /  1016.8hPa SW 3.3mph /  5.3km/h 7mph /  11.3km/h 67.8% 0.00in /  0mm 281 W/m2
10:04 60.6 °F /  15.9 °C 49.5 °F /  9.7 °C 30.03in /  1016.8hPa WSW 2.5mph /  4km/h 7mph /  11.3km/h 66.8% 0.00in /  0mm 232 W/m2
10:09 60.4 °F /  15.8 °C 49.3 °F /  9.6 °C 30.03in /  1016.8hPa WSW 3.3mph /  5.3km/h 8mph /  12.9km/h 66.4% 0.00in /  0mm 220 W/m2
10:14 60.6 °F /  15.9 °C 49.7 °F /  9.8 °C 30.03in /  1016.8hPa WSW 3.3mph /  5.3km/h 6mph /  9.7km/h 67.2% 0.00in /  0mm 188 W/m2
10:19 60.5 °F /  15.8 °C 50.3 °F /  10.2 °C 30.04in /  1017.2hPa WSW 6mph /  9.7km/h 10mph /  16.1km/h 69% 0.00in /  0mm 186 W/m2
10:24 60.4 °F /  15.8 °C 50.5 °F /  10.3 °C 30.04in /  1017.2hPa West 6.7mph /  10.8km/h 10mph /  16.1km/h 70% 0.00in /  0mm 176 W/m2
10:29 60.3 °F /  15.7 °C 50.3 °F /  10.2 °C 30.04in /  1017.2hPa West 4.7mph /  7.6km/h 9mph /  14.5km/h 70% 0.00in /  0mm 211 W/m2
10:34 60.2 °F /  15.7 °C 50.2 °F /  10.1 °C 30.04in /  1017.2hPa West 3.2mph /  5.1km/h 8mph /  12.9km/h 69.8% 0.00in /  0mm 218 W/m2
10:39 60.3 °F /  15.7 °C 50.4 °F /  10.2 °C 30.04in /  1017.2hPa West 4.4mph /  7.1km/h 9mph /  14.5km/h 70% 0.00in /  0mm 188 W/m2
10:44 60.3 °F /  15.7 °C 50.4 °F /  10.2 °C 30.04in /  1017.2hPa WSW 4.5mph /  7.2km/h 10mph /  16.1km/h 70% 0.00in /  0mm 188 W/m2
10:49 60.2 °F /  15.7 °C 50.3 °F /  10.2 °C 30.04in /  1017.2hPa West 4.8mph /  7.7km/h 11mph /  17.7km/h 70% 0.00in /  0mm 207 W/m2
10:54 60.1 °F /  15.6 °C 50.2 °F /  10.1 °C 30.03in /  1016.8hPa WSW 5.1mph /  8.2km/h 10mph /  16.1km/h 70% 0.00in /  0mm 225 W/m2
10:59 60.3 °F /  15.7 °C 50.4 °F /  10.2 °C 30.04in /  1017.2hPa SW 4.4mph /  7.1km/h 8mph /  12.9km/h 70% 0.00in /  0mm 230 W/m2
11:04 60.1 °F /  15.6 °C 50.2 °F /  10.1 °C 30.04in /  1017.2hPa WSW 5.5mph /  8.9km/h 8mph /  12.9km/h 70% 0.00in /  0mm 244 W/m2
11:09 60.2 °F /  15.7 °C 50.3 °F /  10.2 °C 30.03in /  1016.8hPa SSW 3.2mph /  5.1km/h 10mph /  16.1km/h 70% 0.00in /  0mm 292 W/m2
11:14 60.1 °F /  15.6 °C 50.2 °F /  10.1 °C 30.03in /  1016.8hPa SW 6.7mph /  10.8km/h 10mph /  16.1km/h 70% 0.00in /  0mm 294 W/m2
11:19 60.1 °F /  15.6 °C 50.2 °F /  10.1 °C 30.03in /  1016.8hPa WSW 5.7mph /  9.2km/h 12mph /  19.3km/h 70% 0.00in /  0mm 241 W/m2
11:24 60.2 °F /  15.7 °C 50.3 °F /  10.2 °C 30.03in /  1016.8hPa WSW 5.6mph /  9km/h 8mph /  12.9km/h 70% 0.00in /  0mm 267 W/m2
11:29 60.4 °F /  15.8 °C 50.5 °F /  10.3 °C 30.03in /  1016.8hPa WSW 3.4mph /  5.5km/h 11mph /  17.7km/h 70% 0.00in /  0mm 381 W/m2
11:34 60.3 °F /  15.7 °C 50.4 °F /  10.2 °C 30.02in /  1016.5hPa WSW 8.2mph /  13.2km/h 12mph /  19.3km/h 70% 0.00in /  0mm 392 W/m2
11:39 60.4 °F /  15.8 °C 50.5 °F /  10.3 °C 30.02in /  1016.5hPa SW 4.9mph /  7.9km/h 9mph /  14.5km/h 70% 0.00in /  0mm 260 W/m2
11:44 60.8 °F /  16 °C 50.9 °F /  10.5 °C 30.02in /  1016.5hPa SW 3.7mph /  6km/h 8mph /  12.9km/h 70% 0.00in /  0mm 313 W/m2
11:49 61 °F /  16.1 °C 51.1 °F /  10.6 °C 30.02in /  1016.5hPa WSW 4.8mph /  7.7km/h 8mph /  12.9km/h 70% 0.00in /  0mm 345 W/m2
11:54 61.2 °F /  16.2 °C 51.1 °F /  10.6 °C 30.02in /  1016.5hPa SSW 6.1mph /  9.8km/h 12mph /  19.3km/h 69.4% 0.00in /  0mm 383 W/m2
11:59 61.3 °F /  16.3 °C 51.2 °F /  10.7 °C 30.03in /  1016.8hPa WSW 7mph /  11.3km/h 13mph /  20.9km/h 69.3% 0.00in /  0mm 248 W/m2
12:04 61.2 °F /  16.2 °C 50.9 °F /  10.5 °C 30.03in /  1016.8hPa SW 6mph /  9.7km/h 11mph /  17.7km/h 69% 0.00in /  0mm 248 W/m2
12:09 61.2 °F /  16.2 °C 51.2 °F /  10.7 °C 30.03in /  1016.8hPa West 5.6mph /  9km/h 11mph /  17.7km/h 69.6% 0.00in /  0mm 244 W/m2
12:14 61.3 °F /  16.3 °C 51.4 °F /  10.8 °C 30.02in /  1016.5hPa SW 4.4mph /  7.1km/h 9mph /  14.5km/h 70% 0.00in /  0mm 287 W/m2
12:19 61.8 °F /  16.6 °C 51.8 °F /  11 °C 30.02in /  1016.5hPa SW 1.7mph /  2.7km/h 9mph /  14.5km/h 69.6% 0.00in /  0mm 308 W/m2
12:24 62 °F /  16.7 °C 51.8 °F /  11 °C 30.02in /  1016.5hPa West 6.8mph /  10.9km/h 11mph /  17.7km/h 69% 0.00in /  0mm 295 W/m2
12:29 61.9 °F /  16.6 °C 51.8 °F /  11 °C 30.02in /  1016.5hPa WSW 5.7mph /  9.2km/h 9mph /  14.5km/h 69.4% 0.00in /  0mm 216 W/m2
12:34 61.9 °F /  16.6 °C 51.9 °F /  11.1 °C 30.02in /  1016.5hPa WSW 5.1mph /  8.2km/h 10mph /  16.1km/h 69.8% 0.00in /  0mm 148 W/m2
12:39 61.9 °F /  16.6 °C 52 °F /  11.1 °C 30.02in /  1016.5hPa SW 4.6mph /  7.4km/h 9mph /  14.5km/h 70% 0.00in /  0mm 139 W/m2
12:44 61.9 °F /  16.6 °C 52.1 °F /  11.2 °C 30.02in /  1016.5hPa WSW 2.8mph /  4.5km/h 8mph /  12.9km/h 70.2% 0.00in /  0mm 137 W/m2
12:49 62 °F /  16.7 °C 51.9 °F /  11.1 °C 30.02in /  1016.5hPa SW 4.8mph /  7.7km/h 10mph /  16.1km/h 69.4% 0.00in /  0mm 179 W/m2
12:54 62 °F /  16.7 °C 51.7 °F /  10.9 °C 30.02in /  1016.5hPa SW 4.6mph /  7.4km/h 10mph /  16.1km/h 69% 0.00in /  0mm 281 W/m2
12:59 62.1 °F /  16.7 °C 51.7 °F /  10.9 °C 30.02in /  1016.5hPa WSW 6.8mph /  10.9km/h 11mph /  17.7km/h 68.6% 0.00in /  0mm 301 W/m2
13:04 62.1 °F /  16.7 °C 51.3 °F /  10.7 °C 30.02in /  1016.5hPa SW 6.6mph /  10.6km/h 11mph /  17.7km/h 67.8% 0.00in /  0mm 318 W/m2
13:09 62.4 °F /  16.9 °C 51.3 °F /  10.7 °C 30.01in /  1016.1hPa SW 4.5mph /  7.2km/h 9mph /  14.5km/h 67.2% 0.00in /  0mm 338 W/m2
13:14 62.8 °F /  17.1 °C 51.6 °F /  10.9 °C 30.01in /  1016.1hPa SW 5.1mph /  8.2km/h 11mph /  17.7km/h 67% 0.00in /  0mm 367 W/m2
13:19 62.7 °F /  17.1 °C 51.2 °F /  10.7 °C 30.01in /  1016.1hPa SW 6.9mph /  11.1km/h 14mph /  22.5km/h 66.2% 0.00in /  0mm 348 W/m2
13:24 62.8 °F /  17.1 °C 51.6 °F /  10.9 °C 30.01in /  1016.1hPa SW 9.9mph /  15.9km/h 12mph /  19.3km/h 67% 0.00in /  0mm 309 W/m2
13:29 62.9 °F /  17.2 °C 51.7 °F /  10.9 °C 30.01in /  1016.1hPa SW 6.3mph /  10.1km/h 11mph /  17.7km/h 67% 0.00in /  0mm 388 W/m2
13:34 63 °F /  17.2 °C 52.2 °F /  11.2 °C 30.01in /  1016.1hPa WSW 7.5mph /  12.1km/h 17mph /  27.4km/h 68% 0.00in /  0mm 394 W/m2
13:39 63.1 °F /  17.3 °C 52.3 °F /  11.3 °C 30.01in /  1016.1hPa WSW 5.6mph /  9km/h 10mph /  16.1km/h 68% 0.00in /  0mm 373 W/m2
13:44 63.2 °F /  17.3 °C 52.4 °F /  11.3 °C 30.01in /  1016.1hPa WSW 7.7mph /  12.4km/h 12mph /  19.3km/h 68% 0.00in /  0mm 373 W/m2
13:49 63.6 °F /  17.6 °C 52.8 °F /  11.6 °C 30.01in /  1016.1hPa WSW 4.5mph /  7.2km/h 10mph /  16.1km/h 68% 0.00in /  0mm 387 W/m2
13:54 63.9 °F /  17.7 °C 53 °F /  11.7 °C 30.01in /  1016.1hPa WSW 5.6mph /  9km/h 10mph /  16.1km/h 67.8% 0.00in /  0mm 352 W/m2
13:59 63.8 °F /  17.7 °C 52.9 °F /  11.6 °C 30.00in /  1015.8hPa WSW 4.2mph /  6.8km/h 10mph /  16.1km/h 67.8% 0.00in /  0mm 425 W/m2
14:04 63.9 °F /  17.7 °C 53.1 °F /  11.7 °C 30.00in /  1015.8hPa SW 6mph /  9.7km/h 9mph /  14.5km/h 68% 0.00in /  0mm 475 W/m2
14:09 64.2 °F /  17.9 °C 53.4 °F /  11.9 °C 29.99in /  1015.5hPa South 5.8mph /  9.3km/h 16mph /  25.7km/h 68% 0.00in /  0mm 457 W/m2
14:14 64.6 °F /  18.1 °C 54 °F /  12.2 °C 29.99in /  1015.5hPa SSW 4.3mph /  6.9km/h 16mph /  25.7km/h 68.8% 0.00in /  0mm 476 W/m2
14:19 64.8 °F /  18.2 °C 54 °F /  12.2 °C 29.98in /  1015.1hPa SW 5.5mph /  8.9km/h 14mph /  22.5km/h 68% 0.00in /  0mm 524 W/m2
14:24 65 °F /  18.3 °C 54.3 °F /  12.4 °C 29.98in /  1015.1hPa SW 4mph /  6.4km/h 8mph /  12.9km/h 68.2% 0.00in /  0mm 603 W/m2
14:29 65.7 °F /  18.7 °C 54.4 °F /  12.4 °C 29.98in /  1015.1hPa SSW 6.2mph /  10km/h 12mph /  19.3km/h 66.8% 0.00in /  0mm 775 W/m2
14:34 66.2 °F /  19 °C 54.2 °F /  12.3 °C 29.98in /  1015.1hPa WSW 8.4mph /  13.5km/h 12mph /  19.3km/h 65.4% 0.00in /  0mm 879 W/m2
14:39 66.4 °F /  19.1 °C 54.7 °F /  12.6 °C 29.98in /  1015.1hPa WSW 8.6mph /  13.8km/h 14mph /  22.5km/h 66.2% 0.00in /  0mm 814 W/m2
14:44 66 °F /  18.9 °C 54.9 °F /  12.7 °C 29.98in /  1015.1hPa SW 6.6mph /  10.6km/h 13mph /  20.9km/h 67.4% 0.00in /  0mm 621 W/m2
14:49 66 °F /  18.9 °C 55.5 °F /  13.1 °C 29.98in /  1015.1hPa SW 6.4mph /  10.3km/h 12mph /  19.3km/h 68.8% 0.00in /  0mm 640 W/m2
14:54 66.8 °F /  19.3 °C 56.3 °F /  13.5 °C 29.98in /  1015.1hPa SSW 6.8mph /  10.9km/h 13mph /  20.9km/h 68.8% 0.00in /  0mm 835 W/m2
14:59 67 °F /  19.4 °C 56.6 °F /  13.7 °C 29.97in /  1014.8hPa SSW 5.9mph /  9.5km/h 13mph /  20.9km/h 69% 0.00in /  0mm 868 W/m2
15:04 68.2 °F /  20.1 °C 57.3 °F /  14.1 °C 29.97in /  1014.8hPa SSW 4.5mph /  7.2km/h 12mph /  19.3km/h 68.3% 0.00in /  0mm 905 W/m2
15:09 68.3 °F /  20.2 °C 56.9 °F /  13.8 °C 29.97in /  1014.8hPa SW 5.8mph /  9.3km/h 13mph /  20.9km/h 67% 0.00in /  0mm 905 W/m2
15:14 68.1 °F /  20.1 °C 57.1 °F /  13.9 °C 29.97in /  1014.8hPa SSW 5.1mph /  8.2km/h 13mph /  20.9km/h 67.8% 0.00in /  0mm 831 W/m2
15:19 68.5 °F /  20.3 °C 57 °F /  13.9 °C 29.97in /  1014.8hPa SW 8.2mph /  13.2km/h 14mph /  22.5km/h 66.6% 0.00in /  0mm 798 W/m2
15:24 67.4 °F /  19.7 °C 56.4 °F /  13.6 °C 29.97in /  1014.8hPa SW 8.3mph /  13.4km/h 15mph /  24.1km/h 67.8% 0.00in /  0mm 715 W/m2
15:29 67.1 °F /  19.5 °C 56.4 °F /  13.6 °C 29.96in /  1014.4hPa SW 10mph /  16.1km/h 15mph /  24.1km/h 68.6% 0.00in /  0mm 271 W/m2
15:34 66.9 °F /  19.4 °C 56.5 °F /  13.6 °C 29.96in /  1014.4hPa SSW 5.5mph /  8.9km/h 14mph /  22.5km/h 69% 0.00in /  0mm 316 W/m2
15:39 66.7 °F /  19.3 °C 56.4 °F /  13.6 °C 29.96in /  1014.4hPa SW 7.1mph /  11.4km/h 18mph /  29km/h 69.2% 0.00in /  0mm 360 W/m2
15:44 66.8 °F /  19.3 °C 56.5 °F /  13.6 °C 29.96in /  1014.4hPa WSW 10.4mph /  16.7km/h 18mph /  29km/h 69.4% 0.00in /  0mm 499 W/m2
15:49 67.2 °F /  19.6 °C 56.8 °F /  13.8 °C 29.96in /  1014.4hPa SW 5.7mph /  9.2km/h 12mph /  19.3km/h 69.3% 0.00in /  0mm 446 W/m2
15:54 67.3 °F /  19.6 °C 56.8 °F /  13.8 °C 29.96in /  1014.4hPa WSW 6.7mph /  10.8km/h 10mph /  16.1km/h 69% 0.00in /  0mm 308 W/m2
15:59 67.2 °F /  19.6 °C 57 °F /  13.9 °C 29.96in /  1014.4hPa WSW 8.2mph /  13.2km/h 12mph /  19.3km/h 69.8% 0.00in /  0mm 315 W/m2
16:04 67.1 °F /  19.5 °C 57 °F /  13.9 °C 29.96in /  1014.4hPa WSW 7mph /  11.3km/h 13mph /  20.9km/h 70% 0.00in /  0mm 251 W/m2
16:09 67.1 °F /  19.5 °C 57 °F /  13.9 °C 29.96in /  1014.4hPa WSW 6.8mph /  10.9km/h 12mph /  19.3km/h 70% 0.00in /  0mm 209 W/m2
16:14 67.3 °F /  19.6 °C 56.9 °F /  13.8 °C 29.96in /  1014.4hPa SSW 7mph /  11.3km/h 12mph /  19.3km/h 69.2% 0.00in /  0mm 221 W/m2
16:19 66.9 °F /  19.4 °C 56.6 °F /  13.7 °C 29.95in /  1014.1hPa SW 6.4mph /  10.3km/h 12mph /  19.3km/h 69.2% 0.00in /  0mm 216 W/m2
16:24 66.9 °F /  19.4 °C 56.7 °F /  13.7 °C 29.95in /  1014.1hPa SW 6.2mph /  10km/h 14mph /  22.5km/h 69.6% 0.00in /  0mm 202 W/m2
16:29 67 °F /  19.4 °C 56.7 °F /  13.7 °C 29.95in /  1014.1hPa SW 7.4mph /  11.9km/h 14mph /  22.5km/h 69.4% 0.00in /  0mm 195 W/m2
16:34 66.8 °F /  19.3 °C 56.7 °F /  13.7 °C 29.95in /  1014.1hPa WSW 6.4mph /  10.3km/h 12mph /  19.3km/h 69.8% 0.00in /  0mm 220 W/m2
16:39 66.9 °F /  19.4 °C 56.9 °F /  13.8 °C 29.95in /  1014.1hPa West 6mph /  9.7km/h 12mph /  19.3km/h 70.2% 0.00in /  0mm 204 W/m2
16:44 67.3 °F /  19.6 °C 57.6 °F /  14.2 °C 29.95in /  1014.1hPa SW 6.3mph /  10.1km/h 11mph /  17.7km/h 71% 0.00in /  0mm 265 W/m2
16:49 67.3 °F /  19.6 °C 57.6 °F /  14.2 °C 29.95in /  1014.1hPa SW 6mph /  9.7km/h 15mph /  24.1km/h 71% 0.00in /  0mm 357 W/m2
16:54 67.2 °F /  19.6 °C 57.5 °F /  14.2 °C 29.95in /  1014.1hPa WSW 7.6mph /  12.2km/h 14mph /  22.5km/h 71% 0.00in /  0mm 315 W/m2
16:59 67.3 °F /  19.6 °C 57.6 °F /  14.2 °C 29.95in /  1014.1hPa WSW 6.4mph /  10.3km/h 14mph /  22.5km/h 71% 0.00in /  0mm 206 W/m2
17:04 67.2 °F /  19.6 °C 57.5 °F /  14.2 °C 29.95in /  1014.1hPa SW 7mph /  11.3km/h 14mph /  22.5km/h 71% 0.00in /  0mm 171 W/m2
17:09 67.1 °F /  19.5 °C 57.4 °F /  14.1 °C 29.94in /  1013.8hPa SSW 5.9mph /  9.5km/h 13mph /  20.9km/h 71% 0.00in /  0mm 176 W/m2
17:14 66.9 °F /  19.4 °C 57.2 °F /  14 °C 29.94in /  1013.8hPa SW 6.7mph /  10.8km/h 13mph /  20.9km/h 71% 0.00in /  0mm 148 W/m2
17:19 66.7 °F /  19.3 °C 57.3 °F /  14.1 °C 29.94in /  1013.8hPa SSW 7.4mph /  11.9km/h 15mph /  24.1km/h 71.8% 0.00in /  0mm 118 W/m2
17:24 66.5 °F /  19.2 °C 57.3 °F /  14.1 °C 29.94in /  1013.8hPa SW 7.2mph /  11.6km/h 18mph /  29km/h 72.6% 0.00in /  0mm 134 W/m2
17:29 66.6 °F /  19.2 °C 57.3 °F /  14.1 °C 29.94in /  1013.8hPa WSW 6.8mph /  10.9km/h 14mph /  22.5km/h 72.2% 0.00in /  0mm 141 W/m2
17:34 66.5 °F /  19.2 °C 57.5 °F /  14.2 °C 29.94in /  1013.8hPa SW 5.4mph /  8.7km/h 14mph /  22.5km/h 73% 0.00in /  0mm 130 W/m2
17:39 66.4 °F /  19.1 °C 57.4 °F /  14.1 °C 29.94in /  1013.8hPa SSW 7.6mph /  12.2km/h 12mph /  19.3km/h 73% 0.00in /  0mm 141 W/m2
17:44 66.3 °F /  19.1 °C 57.3 °F /  14.1 °C 29.93in /  1013.4hPa SW 8.2mph /  13.2km/h 13mph /  20.9km/h 73% 0.00in /  0mm 162 W/m2
17:49 66 °F /  18.9 °C 57.2 °F /  14 °C 29.93in /  1013.4hPa SSW 8.8mph /  14.2km/h 13mph /  20.9km/h 73% 0.00in /  0mm 130 W/m2
17:54 66 °F /  18.9 °C 57.2 °F /  14 °C 29.93in /  1013.4hPa SW 8.4mph /  13.5km/h 15mph /  24.1km/h 73% 0.00in /  0mm 109 W/m2
17:59 65.9 °F /  18.8 °C 57.1 °F /  13.9 °C 29.94in /  1013.8hPa SW 8mph /  12.9km/h 14mph /  22.5km/h 73% 0.00in /  0mm 125 W/m2
18:04 65.8 °F /  18.8 °C 57 °F /  13.9 °C 29.93in /  1013.4hPa WSW 6.2mph /  10km/h 12mph /  19.3km/h 73% 0.00in /  0mm 102 W/m2
18:09 66 °F /  18.9 °C 57.2 °F /  14 °C 29.93in /  1013.4hPa WSW 5.5mph /  8.9km/h 11mph /  17.7km/h 73% 0.00in /  0mm 111 W/m2
18:14 65.8 °F /  18.8 °C 57 °F /  13.9 °C 29.93in /  1013.4hPa SSW 7.6mph /  12.2km/h 12mph /  19.3km/h 73% 0.00in /  0mm 111 W/m2
18:19 65.8 °F /  18.8 °C 57.2 °F /  14 °C 29.93in /  1013.4hPa SW 5mph /  8km/h 9mph /  14.5km/h 73.4% 0.00in /  0mm 123 W/m2
18:24 65.7 °F /  18.7 °C 57.1 °F /  13.9 °C 29.93in /  1013.4hPa SSW 7.2mph /  11.6km/h 15mph /  24.1km/h 73.6% 0.00in /  0mm 125 W/m2
18:29 65.8 °F /  18.8 °C 57.3 °F /  14.1 °C 29.93in /  1013.4hPa SSW 4.5mph /  7.2km/h 9mph /  14.5km/h 73.8% 0.00in /  0mm 151 W/m2
18:34 65.8 °F /  18.8 °C 57 °F /  13.9 °C 29.92in /  1013.1hPa SSW 9.2mph /  14.8km/h 12mph /  19.3km/h 73% 0.00in /  0mm 127 W/m2
18:39 65.8 °F /  18.8 °C 57.2 °F /  14 °C 29.92in /  1013.1hPa SSW 5.5mph /  8.9km/h 11mph /  17.7km/h 73.4% 0.00in /  0mm 105 W/m2
18:44 65.8 °F /  18.8 °C 57.2 °F /  14 °C 29.92in /  1013.1hPa SSW 4.8mph /  7.7km/h 14mph /  22.5km/h 73.6% 0.00in /  0mm 97 W/m2
18:49 65.7 °F /  18.7 °C 57.1 °F /  13.9 °C 29.92in /  1013.1hPa SSW 7.4mph /  11.9km/h 14mph /  22.5km/h 73.8% 0.00in /  0mm 97 W/m2
18:54 65.5 °F /  18.6 °C 57 °F /  13.9 °C 29.92in /  1013.1hPa SW 5.5mph /  8.9km/h 11mph /  17.7km/h 74% 0.00in /  0mm 53 W/m2
18:59 65.4 °F /  18.6 °C 56.9 °F /  13.8 °C 29.92in /  1013.1hPa SW 5.8mph /  9.3km/h 13mph /  20.9km/h 74% 0.00in /  0mm 69 W/m2
19:04 65 °F /  18.3 °C 56.6 °F /  13.7 °C 29.92in /  1013.1hPa SW 8.2mph /  13.2km/h 17mph /  27.4km/h 74% 0.00in /  0mm 69 W/m2
19:09 64.9 °F /  18.3 °C 56.8 °F /  13.8 °C 29.92in /  1013.1hPa SW 4.3mph /  6.9km/h 11mph /  17.7km/h 75% 0.00in /  0mm 77 W/m2
19:14 64.9 °F /  18.3 °C 56.8 °F /  13.8 °C 29.92in /  1013.1hPa SSW 4.2mph /  6.8km/h 13mph /  20.9km/h 75% 0.00in /  0mm 76 W/m2
19:19 64.8 °F /  18.2 °C 56.7 °F /  13.7 °C 29.92in /  1013.1hPa SSW 4.9mph /  7.9km/h 13mph /  20.9km/h 75% 0.00in /  0mm 67 W/m2
19:24 64.8 °F /  18.2 °C 56.7 °F /  13.7 °C 29.92in /  1013.1hPa SW 7mph /  11.3km/h 11mph /  17.7km/h 75% 0.00in /  0mm 77 W/m2
19:29 64.5 °F /  18.1 °C 56.4 °F /  13.6 °C 29.92in /  1013.1hPa SW 6.1mph /  9.8km/h 13mph /  20.9km/h 75% 0.00in /  0mm 77 W/m2
19:34 64.2 °F /  17.9 °C 56.4 °F /  13.6 °C 29.92in /  1013.1hPa SSW 4.7mph /  7.6km/h 13mph /  20.9km/h 75.6% 0.00in /  0mm 42 W/m2
19:39 64.2 °F /  17.9 °C 56.5 °F /  13.6 °C 29.92in /  1013.1hPa WSW 7mph /  11.3km/h 10mph /  16.1km/h 76% 0.00in /  0mm 39 W/m2
19:44 64 °F /  17.8 °C 56.3 °F /  13.5 °C 29.92in /  1013.1hPa SW 3.9mph /  6.3km/h 9mph /  14.5km/h 76% 0.00in /  0mm 35 W/m2
19:49 64 °F /  17.8 °C 56.3 °F /  13.5 °C 29.92in /  1013.1hPa SSW 6mph /  9.7km/h 10mph /  16.1km/h 76% 0.00in /  0mm 28 W/m2
19:54 63.9 °F /  17.7 °C 56.1 °F /  13.4 °C 29.92in /  1013.1hPa SSW 5.2mph /  8.4km/h 10mph /  16.1km/h 76% 0.00in /  0mm 28 W/m2
19:59 63.9 °F /  17.7 °C 56.1 °F /  13.4 °C 29.92in /  1013.1hPa SSW 3.9mph /  6.3km/h 8mph /  12.9km/h 76% 0.00in /  0mm 21 W/m2
20:04 63.7 °F /  17.6 °C 56.1 °F /  13.4 °C 29.92in /  1013.1hPa SW 5mph /  8km/h 9mph /  14.5km/h 76.4% 0.00in /  0mm 16 W/m2
20:09 63.3 °F /  17.4 °C 56.1 °F /  13.4 °C 29.92in /  1013.1hPa SW 4.1mph /  6.6km/h 10mph /  16.1km/h 77.4% 0.00in /  0mm 9 W/m2
20:14 63.1 °F /  17.3 °C 56.3 °F /  13.5 °C 29.92in /  1013.1hPa SSW 3.5mph /  5.6km/h 11mph /  17.7km/h 78.6% 0.00in /  0mm 7 W/m2
20:19 63 °F /  17.2 °C 56.3 °F /  13.5 °C 29.92in /  1013.1hPa SW 6.5mph /  10.5km/h 11mph /  17.7km/h 79% 0.00in /  0mm 7 W/m2
20:24 62.8 °F /  17.1 °C 56.3 °F /  13.5 °C 29.92in /  1013.1hPa SW 6.6mph /  10.6km/h 12mph /  19.3km/h 79.6% 0.00in /  0mm 7 W/m2
20:29 62.7 °F /  17.1 °C 56.4 °F /  13.6 °C 29.91in /  1012.8hPa SSW 4.3mph /  6.9km/h 11mph /  17.7km/h 80% 0.00in /  0mm 5 W/m2
20:34 62.4 °F /  16.9 °C 56.1 °F /  13.4 °C 29.91in /  1012.8hPa SSW 4.9mph /  7.9km/h 10mph /  16.1km/h 80% 0.00in /  0mm 5 W/m2
20:39 62.4 °F /  16.9 °C 56.1 °F /  13.4 °C 29.91in /  1012.8hPa SSW 4.4mph /  7.1km/h 11mph /  17.7km/h 80% 0.00in /  0mm 0 W/m2
20:44 62.4 °F /  16.9 °C 56.1 °F /  13.4 °C 29.91in /  1012.8hPa South 4.5mph /  7.2km/h 9mph /  14.5km/h 80% 0.00in /  0mm 0 W/m2
20:49 62.4 °F /  16.9 °C 56.1 °F /  13.4 °C 29.91in /  1012.8hPa SSW 6mph /  9.7km/h 13mph /  20.9km/h 80% 0.00in /  0mm 0 W/m2
20:54 62.4 °F /  16.9 °C 56.1 °F /  13.4 °C 29.91in /  1012.8hPa SW 6.8mph /  10.9km/h 13mph /  20.9km/h 80% 0.00in /  0mm 0 W/m2
20:59 62.4 °F /  16.9 °C 56.1 °F /  13.4 °C 29.91in /  1012.8hPa WSW 5mph /  8km/h 14mph /  22.5km/h 80% 0.00in /  0mm 0 W/m2
21:03 62.4 °F /  16.9 °C 56.1 °F /  13.4 °C 29.91in /  1012.8hPa SW 8mph /  12.9km/h 15mph /  24.1km/h 80% 0.00in /  0mm 0 W/m2
21:09 62.2 °F /  16.8 °C 55.9 °F /  13.3 °C 29.91in /  1012.8hPa SSW 6.5mph /  10.5km/h 11mph /  17.7km/h 80% 0.00in /  0mm 0 W/m2
21:14 62.3 °F /  16.8 °C 56 °F /  13.3 °C 29.92in /  1013.1hPa SW 7.6mph /  12.2km/h 10mph /  16.1km/h 80% 0.00in /  0mm 0 W/m2
21:19 62.2 °F /  16.8 °C 55.9 °F /  13.3 °C 29.92in /  1013.1hPa SW 6.4mph /  10.3km/h 12mph /  19.3km/h 80% 0.00in /  0mm 0 W/m2
21:24 62.2 °F /  16.8 °C 55.9 °F /  13.3 °C 29.92in /  1013.1hPa SW 7.4mph /  11.9km/h 10mph /  16.1km/h 80% 0.00in /  0mm 0 W/m2
21:29 62.2 °F /  16.8 °C 55.9 °F /  13.3 °C 29.92in /  1013.1hPa SW 4.9mph /  7.9km/h 11mph /  17.7km/h 80% 0.00in /  0mm 0 W/m2
21:34 62.2 °F /  16.8 °C 55.9 °F /  13.3 °C 29.92in /  1013.1hPa SW 5.9mph /  9.5km/h 13mph /  20.9km/h 80% 0.00in /  0mm 0 W/m2
21:39 62.2 °F /  16.8 °C 56.2 °F /  13.4 °C 29.92in /  1013.1hPa WSW 4.2mph /  6.8km/h 11mph /  17.7km/h 80.8% 0.00in /  0mm 0 W/m2
21:44 62.2 °F /  16.8 °C 56.3 °F /  13.5 °C 29.91in /  1012.8hPa SW 5.1mph /  8.2km/h 13mph /  20.9km/h 81% 0.00in /  0mm 0 W/m2
21:49 62.1 °F /  16.7 °C 56.1 °F /  13.4 °C 29.92in /  1013.1hPa SW 5.6mph /  9km/h 13mph /  20.9km/h 81% 0.00in /  0mm 0 W/m2
21:54 62.1 °F /  16.7 °C 56.1 °F /  13.4 °C 29.92in /  1013.1hPa SW 5.4mph /  8.7km/h 10mph /  16.1km/h 81% 0.00in /  0mm 0 W/m2
21:59 62.1 °F /  16.7 °C 56.1 °F /  13.4 °C 29.92in /  1013.1hPa SSW 4.6mph /  7.4km/h 11mph /  17.7km/h 81% 0.00in /  0mm 0 W/m2
22:04 61.9 °F /  16.6 °C 56.1 °F /  13.4 °C 29.92in /  1013.1hPa SSW 7.4mph /  11.9km/h 13mph /  20.9km/h 81.4% 0.00in /  0mm 0 W/m2
22:09 61.9 °F /  16.6 °C 56.2 °F /  13.4 °C 29.92in /  1013.1hPa SSW 6.6mph /  10.6km/h 13mph /  20.9km/h 81.8% 0.00in /  0mm 0 W/m2
22:14 61.9 °F /  16.6 °C 56.3 °F /  13.5 °C 29.92in /  1013.1hPa SSW 4.5mph /  7.2km/h 12mph /  19.3km/h 82% 0.00in /  0mm 0 W/m2
22:19 61.9 °F /  16.6 °C 56.3 °F /  13.5 °C 29.91in /  1012.8hPa SW 6.5mph /  10.5km/h 12mph /  19.3km/h 82% 0.00in /  0mm 0 W/m2
22:24 61.9 °F /  16.6 °C 56.3 °F /  13.5 °C 29.91in /  1012.8hPa SW 4.8mph /  7.7km/h 14mph /  22.5km/h 82% 0.00in /  0mm 0 W/m2
22:29 61.7 °F /  16.5 °C 56.1 °F /  13.4 °C 29.91in /  1012.8hPa SSW 4.9mph /  7.9km/h 9mph /  14.5km/h 82% 0.00in /  0mm 0 W/m2
22:34 61.7 °F /  16.5 °C 56.1 °F /  13.4 °C 29.91in /  1012.8hPa SW 4mph /  6.4km/h 9mph /  14.5km/h 82% 0.00in /  0mm 0 W/m2
22:39 61.7 °F /  16.5 °C 56.1 °F /  13.4 °C 29.92in /  1013.1hPa WSW 4mph /  6.4km/h 9mph /  14.5km/h 82% 0.00in /  0mm 0 W/m2
22:44 61.7 °F /  16.5 °C 56.1 °F /  13.4 °C 29.91in /  1012.8hPa SW 3mph /  4.8km/h 8mph /  12.9km/h 82% 0.00in /  0mm 0 W/m2
22:49 61.6 °F /  16.4 °C 56 °F /  13.3 °C 29.92in /  1013.1hPa West 2.5mph /  4km/h 6mph /  9.7km/h 82% 0.00in /  0mm 0 W/m2
22:54 61.5 °F /  16.4 °C 56 °F /  13.3 °C 29.91in /  1012.8hPa WSW 4.6mph /  7.4km/h 8mph /  12.9km/h 82.2% 0.00in /  0mm 0 W/m2
22:59 61.5 °F /  16.4 °C 56.3 °F /  13.5 °C 29.91in /  1012.8hPa SW 2.8mph /  4.5km/h 9mph /  14.5km/h 83% 0.00in /  0mm 0 W/m2
23:04 61.5 °F /  16.4 °C 56.3 °F /  13.5 °C 29.91in /  1012.8hPa SSW 3.8mph /  6.1km/h 9mph /  14.5km/h 83% 0.00in /  0mm 0 W/m2
23:09 61.5 °F /  16.4 °C 56.3 °F /  13.5 °C 29.91in /  1012.8hPa SW 6.6mph /  10.6km/h 11mph /  17.7km/h 83% 0.00in /  0mm 0 W/m2
23:14 61.5 °F /  16.4 °C 56.3 °F /  13.5 °C 29.91in /  1012.8hPa SW 6mph /  9.7km/h 13mph /  20.9km/h 83% 0.00in /  0mm 0 W/m2
23:19 61.3 °F /  16.3 °C 56.1 °F /  13.4 °C 29.91in /  1012.8hPa SSW 6.6mph /  10.6km/h 13mph /  20.9km/h 83% 0.00in /  0mm 0 W/m2
23:23 61.3 °F /  16.3 °C 56.1 °F /  13.4 °C 29.91in /  1012.8hPa SW 7mph /  11.3km/h 11mph /  17.7km/h 83% 0.00in /  0mm 0 W/m2
23:29 61.3 °F /  16.3 °C 56.1 °F /  13.4 °C 29.91in /  1012.8hPa SW 3.2mph /  5.1km/h 11mph /  17.7km/h 83% 0.00in /  0mm 0 W/m2
23:34 61.3 °F /  16.3 °C 56.1 °F /  13.4 °C 29.91in /  1012.8hPa SW 5.3mph /  8.5km/h 9mph /  14.5km/h 83% 0.00in /  0mm 0 W/m2
23:39 61.4 °F /  16.3 °C 56.2 °F /  13.4 °C 29.91in /  1012.8hPa SSW 5.6mph /  9km/h 12mph /  19.3km/h 83% 0.00in /  0mm 0 W/m2
23:44 61.5 °F /  16.4 °C 56.3 °F /  13.5 °C 29.90in /  1012.4hPa SW 6mph /  9.7km/h 14mph /  22.5km/h 83% 0.00in /  0mm 0 W/m2
23:49 61.5 °F /  16.4 °C 56.3 °F /  13.5 °C 29.91in /  1012.8hPa SW 5.9mph /  9.5km/h 12mph /  19.3km/h 83% 0.00in /  0mm 0 W/m2
23:54 61.5 °F /  16.4 °C 56.3 °F /  13.5 °C 29.91in /  1012.8hPa SSW 7.8mph /  12.6km/h 14mph /  22.5km/h 83% 0.00in /  0mm 0 W/m2
23:59 61.5 °F /  16.4 °C 56.3 °F /  13.5 °C 29.91in /  1012.8hPa SSW 5.6mph /  9km/h 9mph /  14.5km/h 83% 0.00in /  0mm 0 W/m2
Bath Spa Weather
Compliments of Weather Underground - 2 mb